createdAt,value
2022-08-30T00:07:40.357Z,9.20
2022-08-30T00:17:44.553Z,9.00
2022-08-30T00:27:49.934Z,8.90
2022-08-30T00:37:53.395Z,8.90
2022-08-30T00:48:00.252Z,8.70
2022-08-30T00:58:08.276Z,8.60
2022-08-30T01:08:13.533Z,8.50
2022-08-30T01:18:18.788Z,8.50
2022-08-30T01:28:28.280Z,8.40
2022-08-30T01:38:36.513Z,8.30
2022-08-30T01:48:50.343Z,8.20
2022-08-30T01:59:02.847Z,8.10
2022-08-30T02:09:08.190Z,8.10
2022-08-30T02:19:12.864Z,8.00
2022-08-30T02:29:20.151Z,7.90
2022-08-30T02:39:23.933Z,7.80
2022-08-30T02:49:35.959Z,7.70
2022-08-30T02:59:44.070Z,7.70
2022-08-30T03:09:48.869Z,7.60
2022-08-30T03:19:52.330Z,7.70
2022-08-30T03:29:57.427Z,7.70
2022-08-30T03:40:00.797Z,7.60
2022-08-30T03:50:09.404Z,7.60
2022-08-30T04:00:15.283Z,7.50
2022-08-30T04:10:21.343Z,7.60
2022-08-30T04:20:24.969Z,7.60
2022-08-30T04:30:29.914Z,7.80
2022-08-30T04:40:33.434Z,8.20
2022-08-30T04:50:38.238Z,8.40
2022-08-30T05:00:48.206Z,8.50
2022-08-30T05:10:54.241Z,8.80
2022-08-30T05:21:06.371Z,9.20
2022-08-30T05:31:19.277Z,9.70
2022-08-30T05:41:26.655Z,10.30
2022-08-30T05:51:35.142Z,11.00
2022-08-30T06:01:41.879Z,11.80
2022-08-30T06:11:47.813Z,12.90
2022-08-30T06:21:52.624Z,14.50
2022-08-30T06:31:59.091Z,16.70
2022-08-30T06:42:02.366Z,18.60
2022-08-30T06:52:10.772Z,20.30
2022-08-30T07:02:14.618Z,21.90
2022-08-30T07:12:19.372Z,23.70
2022-08-30T07:22:23.376Z,25.80
2022-08-30T07:32:28.114Z,28.50
2022-08-30T07:42:32.164Z,30.20
2022-08-30T08:02:42.558Z,32.00
2022-08-30T08:12:47.791Z,33.90
2022-08-30T08:22:51.757Z,37.20
2022-08-30T08:32:57.175Z,39.20
2022-08-30T08:43:07.142Z,35.50
2022-08-30T08:53:45.969Z,33.00
2022-08-30T09:03:51.820Z,32.00
2022-08-30T09:13:56.888Z,33.90
2022-08-30T09:24:04.699Z,39.30
2022-08-30T09:34:17.624Z,41.10
2022-08-30T09:44:24.802Z,44.10
2022-08-30T09:54:37.643Z,38.30
2022-08-30T10:04:49.136Z,36.80
2022-08-30T10:15:07.673Z,44.10
2022-08-30T10:25:16.114Z,49.40
2022-08-30T10:35:25.987Z,46.40
2022-08-30T10:45:34.879Z,43.00
2022-08-30T10:55:50.135Z,47.30
2022-08-30T11:06:26.010Z,38.00
2022-08-30T11:16:41.437Z,40.90
2022-08-30T11:27:02.765Z,45.80
2022-08-30T11:37:09.703Z,36.90
2022-08-30T11:47:47.862Z,47.70
2022-08-30T11:58:02.084Z,47.60
2022-08-30T12:08:09.008Z,53.70
2022-08-30T12:18:31.131Z,48.30
2022-08-30T12:28:34.706Z,36.80
2022-08-30T12:38:39.413Z,42.40
2022-08-30T12:48:43.502Z,50.60
2022-08-30T12:58:50.845Z,48.20
2022-08-30T13:08:55.592Z,36.90
2022-08-30T13:19:29.327Z,32.50
2022-08-30T13:29:32.751Z,30.40
2022-08-30T13:39:37.754Z,28.30
2022-08-30T13:49:45.276Z,28.70
2022-08-30T13:59:51.061Z,28.80
2022-08-30T14:09:54.647Z,28.00
2022-08-30T14:20:19.673Z,27.40
2022-08-30T14:30:23.362Z,26.80
2022-08-30T14:40:28.233Z,26.40
2022-08-30T14:50:31.654Z,25.40
2022-08-30T15:00:36.588Z,24.10
2022-08-30T15:10:42.298Z,24.10
2022-08-30T15:20:49.460Z,25.00
2022-08-30T15:30:52.796Z,24.10
2022-08-30T15:41:00.097Z,23.20
2022-08-30T15:51:07.426Z,22.90
2022-08-30T16:01:15.763Z,22.60
2022-08-30T16:11:24.793Z,22.40
2022-08-30T16:21:32.623Z,22.10
2022-08-30T16:31:37.343Z,21.80
2022-08-30T16:41:44.732Z,21.10
2022-08-30T16:51:49.563Z,20.40
2022-08-30T17:01:56.491Z,20.20
2022-08-30T17:12:00.308Z,19.90
2022-08-30T17:22:08.706Z,19.60
2022-08-30T17:32:12.176Z,19.30
2022-08-30T17:42:17.451Z,18.90
2022-08-30T17:52:20.779Z,18.40
2022-08-30T18:02:30.024Z,17.80
2022-08-30T18:12:33.950Z,17.20
2022-08-30T18:22:39.176Z,16.70
2022-08-30T18:32:43.664Z,16.60
2022-08-30T18:42:48.385Z,16.50
2022-08-30T18:52:53.013Z,16.30
2022-08-30T19:03:02.776Z,16.30
2022-08-30T19:13:06.376Z,16.30
2022-08-30T19:23:11.580Z,16.20
2022-08-30T19:33:15.320Z,15.90
2022-08-30T19:43:20.493Z,15.60
2022-08-30T19:53:24.762Z,15.20
2022-08-30T20:03:30.365Z,14.80
2022-08-30T20:13:34.462Z,14.50
2022-08-30T20:23:39.751Z,14.20
2022-08-30T20:33:44.337Z,13.90
2022-08-30T20:43:50.474Z,13.70
2022-08-30T20:53:55.193Z,13.50
2022-08-30T21:04:00.817Z,13.20
2022-08-30T21:14:05.872Z,12.90
2022-08-30T21:24:11.227Z,12.70
2022-08-30T21:34:17.424Z,12.50
2022-08-30T21:44:26.500Z,12.40
2022-08-30T21:54:31.557Z,12.40
2022-08-30T22:04:37.259Z,12.20
2022-08-30T22:14:41.643Z,12.10
2022-08-30T22:24:46.793Z,12.00
2022-08-30T22:34:51.120Z,12.00
2022-08-30T22:44:56.437Z,11.80
2022-08-30T22:55:00.293Z,11.60
2022-08-30T23:05:07.202Z,11.40
2022-08-30T23:15:14.858Z,11.30
2022-08-30T23:25:41.563Z,11.30
2022-08-30T23:36:05.690Z,11.10
2022-08-30T23:46:28.541Z,11.00
2022-08-30T23:56:49.901Z,11.00
